Navarre, MN (55392)

6:00 PM CST on February 08, 2016 (GMT -0600)
Hadley Lake | | Change Station
CLOSE
Current Station
Personal Weather Station
Location: Minneapolis, MN
Elevation: 994 ft
Nearby Weather Stations

Elev 994 ft 44.98 °N, 93.51 °W | Updated 3 seconds ago

Overcast
Overcast
14.7 °F
Feels Like 2 °F
N
10.3
Wind Variable Wind from WNW
Gusts 12.3 mph

Today
High -- | Low -- °F
--% Chance of Precip.
Yesterday
High -- | Low -- °F
Precip. -- in
Pressure 30.02 in
Visibility 8.0 miles
Clouds Few 3000 ft
Mostly Cloudy 3600 ft
Overcast 10000 ft
Windchill 2 °F
Dew Point 4 °F
Humidity 63%
Rainfall 0.00 in
Snow Depth Not available.
7:25 AM 5:31 PM
New Moon, 0% visible
METAR KFCM 082353Z 33013G21KT 8SM -SN FEW030 BKN036 OVC100 M08/M14 A2996 RMK AO2 SNB35 SLP164 P0000 60000 T10831139 11083 21100 51004
Pressure 30.02 in
Visibility 8.0 miles
Clouds Few 3000 ft
Mostly Cloudy 3600 ft
Overcast 10000 ft
Windchill 2 °F
Dew Point 4 °F
Humidity 63%
Rainfall 0.00 in
Snow Depth Not available.
7:25 AM 5:31 PM
New Moon, 0% visible
METAR KFCM 082353Z 33013G21KT 8SM -SN FEW030 BKN036 OVC100 M08/M14 A2996 RMK AO2 SNB35 SLP164 P0000 60000 T10831139 11083 21100 51004

10-Day Weather Forecast

Almanac

Astronomy

Feb. 08, 2016 Rise Set
Actual Time
Civil Twilight
Nautical Twilight
Astronomical Twilight
Moon
Length of Visible Light
Length of Day
Tomorrow will be .
, % of the Moon is Illuminated

Today's Extremes

State Highs State Lows

Community

WunderPhotos

Upload Photos

1,891,527 photos uploaded!

WunderBlog® & News

Nearby

Air Quality

  Air Quality AQ Index Pollutant
Not available.

Snow Depth

Station Depth Elevation

Earthquake Activity

City Distance Mag. Time & Date
Minimum magnitude displayed is 2.5.

Coastal Water Temperatures

Place Temperature

Stations

Nearby Weather Stations

Station Location Temp. Windchill Dew Point Humidity Wind Precip. Elev Updated Type
                   

Watches & Warnings

There are currently no watches in effect.